createdAt,value
2022-08-27T00:04:21.133Z,0.0
2022-08-27T00:14:22.645Z,0.0
2022-08-27T00:19:23.604Z,0.0
2022-08-27T00:24:24.530Z,0.0
2022-08-27T00:29:25.445Z,0.0
2022-08-27T00:34:26.423Z,0.0
2022-08-27T00:39:27.338Z,0.0
2022-08-27T00:44:28.281Z,0.0
2022-08-27T00:49:29.612Z,0.0
2022-08-27T00:54:30.637Z,0.0
2022-08-27T00:59:31.590Z,0.0
2022-08-27T01:04:32.849Z,0.0
2022-08-27T01:09:47.221Z,0.0
2022-08-27T01:14:53.157Z,0.0
2022-08-27T01:19:56.686Z,0.0
2022-08-27T01:24:58.255Z,0.0
2022-08-27T01:29:59.226Z,0.0
2022-08-27T01:35:00.192Z,1.16185
2022-08-27T01:40:01.211Z,1.16185
2022-08-27T01:45:05.042Z,1.16185
2022-08-27T01:50:06.887Z,1.16185
2022-08-27T01:55:07.829Z,1.16185
2022-08-27T02:00:08.758Z,1.16185
2022-08-27T02:05:09.674Z,1.16185
2022-08-27T02:10:11.659Z,1.16185
2022-08-27T02:15:12.633Z,1.16185
2022-08-27T02:20:13.583Z,1.16185
2022-08-27T02:25:14.488Z,1.16185
2022-08-27T02:30:15.498Z,0.0
2022-08-27T02:35:16.436Z,1.16185
2022-08-27T02:40:17.581Z,1.16185
2022-08-27T02:45:18.605Z,1.16185
2022-08-27T02:50:19.524Z,1.16185
2022-08-27T02:55:20.495Z,1.16185
2022-08-27T03:00:21.863Z,1.16185
2022-08-27T03:05:23.192Z,1.16185
2022-08-27T03:10:24.150Z,1.16185
2022-08-27T03:15:26.422Z,1.16185
2022-08-27T03:20:28.234Z,1.16185
2022-08-27T03:25:29.159Z,1.16185
2022-08-27T03:30:30.508Z,0.0
2022-08-27T03:35:31.464Z,1.16185
2022-08-27T03:45:48.496Z,0.0
2022-08-27T03:51:02.057Z,0.4148
2022-08-27T03:56:03.016Z,0.0
2022-08-27T04:01:03.976Z,1.3463
2022-08-27T04:06:04.949Z,2.3237
2022-08-27T04:11:23.675Z,2.50815
2022-08-27T04:16:25.244Z,1.2444
2022-08-27T04:21:26.246Z,3.85445
2022-08-27T04:26:27.165Z,5.0163
2022-08-27T04:31:28.222Z,2.4888
2022-08-27T04:36:29.235Z,7.7089
2022-08-27T04:41:30.181Z,14.68
2022-08-27T04:46:31.269Z,10.7704
2022-08-27T04:51:33.699Z,12.30115
2022-08-27T05:01:35.500Z,9.73785
2022-08-27T05:06:36.550Z,19.40155
2022-08-27T05:11:37.481Z,20.74785
2022-08-27T05:16:38.562Z,22.6475
2022-08-27T05:21:39.582Z,22.96125
2022-08-27T05:26:40.554Z,21.6882
2022-08-27T05:31:42.004Z,30.55985
2022-08-27T05:36:48.022Z,37.53095
2022-08-27T05:41:50.266Z,41.7543
2022-08-27T05:46:51.236Z,51.418
2022-08-27T05:51:52.172Z,51.418
2022-08-27T05:56:53.136Z,44.9261
2022-08-27T06:01:54.094Z,46.95505
2022-08-27T06:06:56.580Z,53.2625
2022-08-27T06:11:58.213Z,74.37925
2022-08-27T06:16:59.286Z,91.3658
2022-08-27T06:22:10.049Z,101.80345
2022-08-27T06:27:12.798Z,101.43455
2022-08-27T06:32:13.762Z,86.36665
2022-08-27T06:37:14.686Z,82.5122
2022-08-27T06:42:15.793Z,84.28255
2022-08-27T06:47:18.866Z,81.9037
2022-08-27T06:52:23.061Z,111.0431
2022-08-27T06:57:24.397Z,121.73935
2022-08-27T07:07:31.860Z,63.5347
2022-08-27T07:12:37.521Z,47.43425
2022-08-27T07:17:38.508Z,49.14945
2022-08-27T07:22:39.560Z,65.80325
2022-08-27T07:27:40.556Z,118.752
2022-08-27T07:32:41.602Z,105.58375
2022-08-27T07:37:42.645Z,111.2827
2022-08-27T07:42:43.645Z,142.5062
2022-08-27T07:47:44.594Z,209.9695
2022-08-27T07:57:46.448Z,224.44605
2022-08-27T08:02:47.670Z,156.54155
2022-08-27T08:12:56.570Z,171.09225
2022-08-27T08:17:57.813Z,203.7552
2022-08-27T08:22:58.867Z,181.73335
2022-08-27T08:28:00.247Z,184.1502
2022-08-27T08:33:01.605Z,135.904
2022-08-27T08:38:02.572Z,112.7583
2022-08-27T08:43:03.580Z,201.7814
2022-08-27T08:48:04.681Z,359.1882
2022-08-27T08:53:05.662Z,299.8787
2022-08-27T08:58:06.709Z,308.8426
2022-08-27T09:03:07.702Z,455.08925
2022-08-27T09:08:31.967Z,591.2157
2022-08-27T09:13:34.680Z,406.0158
2022-08-27T09:18:35.801Z,371.10515
2022-08-27T09:23:44.700Z,492.99465
2022-08-27T09:28:46.276Z,391.53925
2022-08-27T09:33:56.034Z,316.8634
2022-08-27T09:43:58.567Z,296.89135
2022-08-27T09:48:59.592Z,230.0727
2022-08-27T09:54:02.343Z,250.9517
2022-08-27T09:59:03.429Z,261.9047
2022-08-27T10:04:04.465Z,226.84575
2022-08-27T10:09:14.516Z,200.10235
2022-08-27T10:14:15.495Z,222.5121
2022-08-27T10:19:16.526Z,190.0146
2022-08-27T10:24:17.750Z,224.52205
2022-08-27T10:29:18.713Z,228.41265
2022-08-27T10:34:19.792Z,212.77425
2022-08-27T10:39:20.959Z,166.79475
2022-08-27T10:49:24.347Z,191.2696
2022-08-27T10:54:32.504Z,206.85285
2022-08-27T10:59:33.932Z,160.7649
2022-08-27T11:04:34.881Z,164.36075
2022-08-27T11:09:36.227Z,174.78125
2022-08-27T11:14:37.152Z,182.87805
2022-08-27T11:19:44.858Z,220.428
2022-08-27T11:29:46.512Z,370.6811
2022-08-27T11:34:47.523Z,492.77775
2022-08-27T11:39:52.311Z,479.45565
2022-08-27T11:49:53.866Z,328.4096
2022-08-27T11:54:54.808Z,301.1527
2022-08-27T11:59:55.750Z,309.6527
2022-08-27T12:04:56.737Z,264.26825
2022-08-27T12:09:57.670Z,238.3711
2022-08-27T12:14:58.593Z,208.3836
2022-08-27T12:20:00.039Z,179.29935
2022-08-27T12:25:01.064Z,151.1012
2022-08-27T12:35:04.523Z,261.57195
2022-08-27T12:45:06.338Z,443.8225
2022-08-27T12:50:07.398Z,644.2576
2022-08-27T12:55:08.390Z,708.6177
2022-08-27T13:00:09.387Z,1299.8677
2022-08-27T13:05:10.701Z,644.7331
2022-08-27T13:10:11.845Z,464.31175
2022-08-27T13:15:14.489Z,369.07435
2022-08-27T13:20:17.448Z,235.4199
2022-08-27T13:25:18.367Z,278.7981
2022-08-27T13:30:35.562Z,348.16105
2022-08-27T13:40:38.031Z,519.124
2022-08-27T13:45:38.996Z,293.62455
2022-08-27T13:50:40.032Z,302.75205
2022-08-27T13:55:41.171Z,269.8875
2022-08-27T14:00:42.085Z,218.8384
2022-08-27T14:05:43.012Z,172.99005
2022-08-27T14:10:43.979Z,164.2676
2022-08-27T14:16:28.944Z,266.9743
2022-08-27T14:21:40.041Z,323.05685
2022-08-27T14:26:41.017Z,305.7014
2022-08-27T14:31:42.180Z,265.38655
2022-08-27T14:36:54.647Z,243.1821
2022-08-27T14:41:58.179Z,176.4756
2022-08-27T14:51:59.604Z,134.8506
2022-08-27T14:57:00.567Z,177.35985
2022-08-27T15:02:01.796Z,92.45165
2022-08-27T15:07:02.796Z,74.82045
2022-08-27T15:12:04.008Z,66.39275
2022-08-27T15:17:10.969Z,88.28345
2022-08-27T15:22:32.758Z,66.26345
2022-08-27T15:27:38.590Z,75.31865
2022-08-27T15:37:40.271Z,77.03385
2022-08-27T15:42:41.304Z,88.17315
2022-08-27T15:47:42.259Z,104.7528
2022-08-27T15:52:44.665Z,132.5269
2022-08-27T15:57:51.554Z,147.8344
2022-08-27T16:02:52.565Z,133.8922
2022-08-27T16:12:54.033Z,125.5938
2022-08-27T16:17:54.958Z,114.3442
2022-08-27T16:22:55.896Z,111.11725
2022-08-27T16:27:56.808Z,110.15885
2022-08-27T16:32:57.748Z,112.96175
2022-08-27T16:37:58.638Z,100.6606
2022-08-27T16:42:59.826Z,88.23015
2022-08-27T16:48:00.812Z,78.06825
2022-08-27T16:53:01.900Z,71.2626
2022-08-27T16:58:02.813Z,61.67305
2022-08-27T17:03:03.723Z,66.19115
2022-08-27T17:08:04.761Z,60.06815
2022-08-27T17:13:06.890Z,39.5599
2022-08-27T17:18:07.787Z,33.86095
2022-08-27T17:23:10.143Z,24.6213
2022-08-27T17:28:11.347Z,20.5824
2022-08-27T17:33:12.550Z,13.0366
2022-08-27T17:43:21.199Z,8.059
2022-08-27T17:48:26.462Z,4.96115
2022-08-27T17:53:27.691Z,4.7767
2022-08-27T17:58:28.734Z,2.01475
2022-08-27T18:03:29.637Z,2.50815
2022-08-27T18:08:45.508Z,1.3463
2022-08-27T18:13:49.133Z,0.88885
2022-08-27T18:18:50.271Z,0.47405
2022-08-27T18:23:51.228Z,0.0
2022-08-27T18:28:52.189Z,0.0
2022-08-27T18:33:53.333Z,0.0
2022-08-27T18:38:54.288Z,0.0
2022-08-27T18:43:55.210Z,0.0
2022-08-27T18:53:57.225Z,0.0
2022-08-27T18:58:58.133Z,0.0
2022-08-27T19:08:59.517Z,0.0
2022-08-27T19:14:01.701Z,0.0
2022-08-27T19:19:02.606Z,0.0
2022-08-27T19:24:04.139Z,0.0
2022-08-27T19:29:05.112Z,0.0
2022-08-27T19:34:06.020Z,0.0
2022-08-27T19:39:07.590Z,0.0
2022-08-27T19:44:08.690Z,0.0
2022-08-27T19:49:09.640Z,0.0
2022-08-27T19:54:10.593Z,0.0
2022-08-27T19:59:20.514Z,0.0
2022-08-27T20:04:23.582Z,0.0
2022-08-27T20:09:24.526Z,0.0
2022-08-27T20:14:25.567Z,0.0
2022-08-27T20:24:26.937Z,0.0
2022-08-27T20:29:32.375Z,0.0
2022-08-27T20:34:34.001Z,0.0
2022-08-27T20:39:34.952Z,0.0
2022-08-27T20:44:35.827Z,0.0
2022-08-27T20:49:36.716Z,0.0
2022-08-27T20:54:37.680Z,0.0
2022-08-27T20:59:38.634Z,0.0
2022-08-27T21:04:39.558Z,0.0
2022-08-27T21:09:55.527Z,0.0
2022-08-27T21:14:58.305Z,0.0
2022-08-27T21:19:59.188Z,0.0
2022-08-27T21:25:00.107Z,0.0
2022-08-27T21:30:01.030Z,0.0
2022-08-27T21:35:02.081Z,0.0
2022-08-27T21:40:03.336Z,0.0
2022-08-27T21:45:04.367Z,0.0
2022-08-27T21:50:05.283Z,0.0
2022-08-27T22:00:06.667Z,0.0
2022-08-27T22:05:07.622Z,0.0
2022-08-27T22:10:08.580Z,0.0
2022-08-27T22:15:09.533Z,0.0
2022-08-27T22:20:10.456Z,0.0
2022-08-27T22:25:11.456Z,0.0
2022-08-27T22:30:12.540Z,1.16185
2022-08-27T22:35:13.495Z,1.16185
2022-08-27T22:40:19.497Z,1.16185
2022-08-27T22:45:21.215Z,0.0
2022-08-27T22:50:22.331Z,0.0
2022-08-27T22:55:23.262Z,1.16185
2022-08-27T23:00:24.181Z,1.16185
2022-08-27T23:05:25.329Z,1.16185
2022-08-27T23:10:27.169Z,1.16185
2022-08-27T23:15:28.223Z,1.16185
2022-08-27T23:20:29.221Z,1.16185
2022-08-27T23:25:30.158Z,1.16185
2022-08-27T23:30:31.086Z,0.0
2022-08-27T23:40:32.553Z,1.16185
2022-08-27T23:45:35.976Z,0.0
2022-08-27T23:50:40.740Z,1.16185
